createdAt,value
2018-09-16T00:01:50.737Z,12.40
2018-09-16T00:06:54.060Z,12.50
2018-09-16T00:11:57.164Z,12.40
2018-09-16T00:17:00.469Z,12.40
2018-09-16T00:22:07.276Z,12.30
2018-09-16T00:27:10.292Z,12.30
2018-09-16T00:32:18.929Z,12.30
2018-09-16T00:37:22.012Z,12.20
2018-09-16T00:42:25.124Z,12.20
2018-09-16T00:47:28.153Z,12.20
2018-09-16T00:52:31.385Z,12.10
2018-09-16T00:57:34.447Z,12.10
2018-09-16T01:02:37.475Z,12.10
2018-09-16T01:07:40.551Z,12.10
2018-09-16T01:12:43.656Z,12.00
2018-09-16T01:17:46.740Z,12.00
2018-09-16T01:22:49.863Z,11.90
2018-09-16T01:27:52.956Z,11.80
2018-09-16T01:32:55.977Z,11.80
2018-09-16T01:38:04.436Z,11.70
2018-09-16T01:43:08.582Z,11.70
2018-09-16T01:48:11.631Z,11.70
2018-09-16T01:53:14.664Z,11.70
2018-09-16T01:58:17.760Z,11.70
2018-09-16T02:03:20.776Z,11.60
2018-09-16T02:08:25.044Z,11.60
2018-09-16T02:13:28.107Z,11.60
2018-09-16T02:18:31.228Z,11.60
2018-09-16T02:23:34.312Z,11.50
2018-09-16T02:28:37.348Z,11.40
2018-09-16T02:33:40.357Z,11.50
2018-09-16T02:38:43.489Z,11.50
2018-09-16T02:43:46.823Z,11.50
2018-09-16T02:48:49.844Z,11.50
2018-09-16T02:53:52.907Z,11.60
2018-09-16T02:58:55.956Z,11.60
2018-09-16T03:03:58.980Z,11.60
2018-09-16T03:09:02.835Z,11.50
2018-09-16T03:14:05.892Z,11.50
2018-09-16T03:19:08.987Z,11.50
2018-09-16T03:24:12.104Z,11.40
2018-09-16T03:29:15.118Z,11.30
2018-09-16T03:34:18.147Z,11.30
2018-09-16T03:39:21.199Z,11.20
2018-09-16T03:44:24.324Z,11.20
2018-09-16T03:49:27.362Z,11.10
2018-09-16T03:54:30.472Z,11.10
2018-09-16T03:59:33.527Z,11.10
2018-09-16T04:04:36.601Z,11.00
2018-09-16T04:09:39.634Z,11.00
2018-09-16T04:14:42.662Z,11.00
2018-09-16T04:19:45.674Z,10.90
2018-09-16T04:24:48.745Z,10.90
2018-09-16T04:29:51.779Z,10.90
2018-09-16T04:34:54.869Z,10.90
2018-09-16T04:39:57.895Z,10.90
2018-09-16T04:45:01.004Z,10.90
2018-09-16T04:50:04.355Z,10.90
2018-09-16T04:55:07.397Z,10.90
2018-09-16T05:00:10.498Z,11.00
2018-09-16T05:05:13.511Z,11.00
2018-09-16T05:10:16.579Z,11.00
2018-09-16T05:15:19.755Z,11.10
2018-09-16T05:20:22.885Z,11.20
2018-09-16T05:25:26.016Z,11.30
2018-09-16T05:30:29.052Z,11.40
2018-09-16T05:35:32.084Z,11.50
2018-09-16T05:40:35.172Z,11.50
2018-09-16T05:45:38.229Z,11.60
2018-09-16T05:50:41.277Z,11.70
2018-09-16T05:55:44.549Z,11.80
2018-09-16T06:00:47.622Z,12.00
2018-09-16T06:05:50.671Z,12.10
2018-09-16T06:10:53.912Z,12.30
2018-09-16T06:15:56.919Z,12.50
2018-09-16T06:21:00.012Z,12.60
2018-09-16T06:26:03.085Z,13.20
2018-09-16T06:31:06.149Z,14.30
2018-09-16T06:36:09.139Z,15.30
2018-09-16T06:41:12.168Z,16.00
2018-09-16T06:46:15.553Z,17.20
2018-09-16T06:51:19.019Z,17.70
2018-09-16T06:56:22.077Z,18.50
2018-09-16T07:01:25.645Z,19.10
2018-09-16T07:06:33.067Z,19.80
2018-09-16T07:11:36.209Z,20.00
2018-09-16T07:16:39.322Z,19.90
2018-09-16T07:21:42.339Z,20.30
2018-09-16T07:26:46.626Z,20.50
2018-09-16T07:31:49.688Z,21.50
2018-09-16T07:36:52.719Z,21.50
2018-09-16T07:41:55.853Z,22.30
2018-09-16T07:46:58.880Z,23.10
2018-09-16T07:52:02.001Z,24.00
2018-09-16T07:57:06.391Z,23.90
2018-09-16T08:02:09.525Z,24.50
2018-09-16T08:07:12.548Z,24.30
2018-09-16T08:12:15.901Z,24.50
2018-09-16T08:17:19.080Z,24.30
2018-09-16T08:22:22.174Z,23.70
2018-09-16T08:27:25.316Z,22.90
2018-09-16T08:32:28.467Z,22.80
2018-09-16T08:37:31.531Z,22.70
2018-09-16T08:42:34.658Z,22.90
2018-09-16T08:47:37.720Z,22.70
2018-09-16T08:52:40.905Z,22.50
2018-09-16T08:57:44.013Z,22.00
2018-09-16T09:02:47.452Z,22.00
2018-09-16T09:07:51.485Z,21.70
2018-09-16T09:12:54.661Z,21.50
2018-09-16T09:17:57.771Z,21.40
2018-09-16T09:23:00.824Z,21.30
2018-09-16T09:28:03.944Z,21.30
2018-09-16T09:33:07.004Z,21.00
2018-09-16T09:38:10.216Z,21.10
2018-09-16T09:43:13.249Z,21.00
2018-09-16T09:48:16.368Z,21.00
2018-09-16T09:53:19.461Z,21.00
2018-09-16T09:58:23.563Z,21.10
2018-09-16T10:03:26.715Z,21.00
2018-09-16T10:08:29.806Z,21.20
2018-09-16T10:13:32.973Z,21.30
2018-09-16T10:18:36.040Z,21.40
2018-09-16T10:23:40.308Z,21.40
2018-09-16T10:28:43.908Z,21.30
2018-09-16T10:33:46.980Z,21.20
2018-09-16T10:38:50.069Z,21.20
2018-09-16T10:43:53.321Z,21.20
2018-09-16T10:48:56.384Z,21.10
2018-09-16T10:53:59.455Z,21.10
2018-09-16T10:59:02.609Z,21.20
2018-09-16T11:04:05.928Z,21.30
2018-09-16T11:09:09.772Z,21.30
2018-09-16T11:14:12.916Z,21.40
2018-09-16T11:19:16.097Z,21.50
2018-09-16T11:24:19.232Z,21.60
2018-09-16T11:29:22.296Z,21.50
2018-09-16T11:34:26.520Z,21.60
2018-09-16T11:39:29.795Z,21.50
2018-09-16T11:44:32.855Z,21.50
2018-09-16T11:49:35.894Z,21.80
2018-09-16T11:54:39.011Z,22.10
2018-09-16T11:59:42.032Z,22.30
2018-09-16T12:04:45.112Z,22.20
2018-09-16T12:09:48.292Z,22.20
2018-09-16T12:14:51.424Z,22.20
2018-09-16T12:19:54.512Z,22.00
2018-09-16T12:24:57.687Z,21.90
2018-09-16T12:30:00.754Z,22.00
2018-09-16T12:35:03.889Z,21.90
2018-09-16T12:40:06.964Z,22.00
2018-09-16T12:45:10.141Z,22.10
2018-09-16T12:50:13.242Z,22.20
2018-09-16T12:55:16.336Z,22.10
2018-09-16T13:00:19.409Z,22.10
2018-09-16T13:05:24.497Z,22.10
2018-09-16T13:10:27.715Z,22.10
2018-09-16T13:15:30.807Z,22.00
2018-09-16T13:20:33.908Z,22.10
2018-09-16T13:25:37.110Z,22.30
2018-09-16T13:30:41.109Z,22.40
2018-09-16T13:35:44.312Z,22.40
2018-09-16T13:40:47.372Z,22.70
2018-09-16T13:45:50.580Z,22.90
2018-09-16T13:50:53.628Z,22.80
2018-09-16T13:55:57.682Z,22.60
2018-09-16T14:01:00.767Z,22.40
2018-09-16T14:06:03.995Z,22.00
2018-09-16T14:11:07.100Z,21.90
2018-09-16T14:16:10.237Z,21.90
2018-09-16T14:21:13.456Z,21.90
2018-09-16T14:26:16.706Z,21.90
2018-09-16T14:31:20.084Z,21.90
2018-09-16T14:36:23.175Z,22.00
2018-09-16T14:41:26.239Z,22.00
2018-09-16T14:46:29.336Z,21.90
2018-09-16T14:51:32.471Z,21.80
2018-09-16T14:56:35.464Z,21.70
2018-09-16T15:01:39.241Z,21.60
2018-09-16T15:06:42.578Z,21.60
2018-09-16T15:11:45.660Z,21.50
2018-09-16T15:16:48.748Z,21.50
2018-09-16T15:21:51.994Z,21.50
2018-09-16T15:26:55.158Z,21.50
2018-09-16T15:31:58.285Z,21.40
2018-09-16T15:37:01.336Z,21.50
2018-09-16T15:42:04.428Z,21.40
2018-09-16T15:47:07.436Z,21.30
2018-09-16T15:52:10.561Z,21.10
2018-09-16T15:57:15.696Z,20.90
2018-09-16T16:02:18.761Z,20.70
2018-09-16T16:07:21.828Z,20.50
2018-09-16T16:12:25.040Z,20.30
2018-09-16T16:17:28.235Z,20.10
2018-09-16T16:22:31.361Z,19.90
2018-09-16T16:27:34.355Z,19.80
2018-09-16T16:32:37.516Z,19.80
2018-09-16T16:37:40.552Z,19.70
2018-09-16T16:42:43.792Z,19.60
2018-09-16T16:47:47.833Z,19.50
2018-09-16T16:52:51.095Z,19.40
2018-09-16T16:57:54.087Z,19.30
2018-09-16T17:02:57.269Z,19.10
2018-09-16T17:08:00.598Z,19.00
2018-09-16T17:13:04.559Z,18.90
2018-09-16T17:18:07.668Z,18.70
2018-09-16T17:23:10.822Z,18.50
2018-09-16T17:28:14.020Z,18.30
2018-09-16T17:33:17.234Z,18.20
2018-09-16T17:38:20.364Z,18.00
2018-09-16T17:43:23.442Z,17.90
2018-09-16T17:48:26.677Z,17.80
2018-09-16T17:53:29.760Z,17.70
2018-09-16T17:58:32.943Z,17.60
2018-09-16T18:03:36.167Z,17.60
2018-09-16T18:08:42.101Z,17.50
2018-09-16T18:13:47.526Z,17.40
2018-09-16T18:18:50.687Z,17.40
2018-09-16T18:23:53.768Z,17.30
2018-09-16T18:28:56.875Z,17.30
2018-09-16T18:33:59.937Z,17.20
2018-09-16T18:39:03.089Z,17.10
2018-09-16T18:44:06.143Z,17.00
2018-09-16T18:49:09.416Z,17.00
2018-09-16T18:54:12.478Z,16.80
2018-09-16T18:59:15.540Z,16.70
2018-09-16T19:04:18.699Z,16.60
2018-09-16T19:09:21.752Z,16.50
2018-09-16T19:14:24.820Z,16.40
2018-09-16T19:19:27.908Z,16.40
2018-09-16T19:24:30.961Z,16.30
2018-09-16T19:29:34.068Z,16.20
2018-09-16T19:34:37.142Z,16.10
2018-09-16T19:39:40.346Z,16.00
2018-09-16T19:44:43.432Z,15.90
2018-09-16T19:49:46.483Z,15.80
2018-09-16T19:54:49.612Z,15.80
2018-09-16T19:59:52.702Z,15.70
2018-09-16T20:04:59.149Z,15.60
2018-09-16T20:10:02.203Z,15.60
2018-09-16T20:15:06.094Z,15.50
2018-09-16T20:20:09.297Z,15.40
2018-09-16T20:25:13.473Z,15.40
2018-09-16T20:30:16.557Z,15.30
2018-09-16T20:35:19.970Z,15.30
2018-09-16T20:40:23.034Z,15.20
2018-09-16T20:45:26.092Z,15.10
2018-09-16T20:50:29.167Z,15.00
2018-09-16T20:55:32.412Z,14.90
2018-09-16T21:00:35.530Z,14.80
2018-09-16T21:05:38.618Z,14.70
2018-09-16T21:10:41.825Z,14.60
2018-09-16T21:15:45.144Z,14.60
2018-09-16T21:20:48.352Z,14.50
2018-09-16T21:25:51.458Z,14.50
2018-09-16T21:30:54.473Z,14.50
2018-09-16T21:35:58.607Z,14.40
2018-09-16T21:41:01.687Z,14.40
2018-09-16T21:46:04.724Z,14.30
2018-09-16T21:51:07.821Z,14.30
2018-09-16T21:56:10.951Z,14.30
2018-09-16T22:01:14.045Z,14.30
2018-09-16T22:06:17.099Z,14.20
2018-09-16T22:11:20.139Z,14.30
2018-09-16T22:16:23.184Z,14.30
2018-09-16T22:21:26.263Z,14.30
2018-09-16T22:26:29.313Z,14.30
2018-09-16T22:31:32.389Z,14.30
2018-09-16T22:36:35.456Z,14.30
2018-09-16T22:41:38.500Z,14.30
2018-09-16T22:46:41.532Z,14.30
2018-09-16T22:51:45.746Z,14.30
2018-09-16T22:56:48.859Z,14.30
2018-09-16T23:01:51.955Z,14.30
2018-09-16T23:06:55.032Z,14.30
2018-09-16T23:11:58.079Z,14.30
2018-09-16T23:17:01.130Z,14.30
2018-09-16T23:22:04.302Z,14.30
2018-09-16T23:27:07.361Z,14.40
2018-09-16T23:32:10.459Z,14.30
2018-09-16T23:37:13.535Z,14.30
2018-09-16T23:42:16.736Z,14.30
2018-09-16T23:47:19.851Z,14.20
2018-09-16T23:52:22.914Z,14.20
2018-09-16T23:57:25.961Z,14.10
